Time;durP1;ratioP1;P1;durP2;ratioP2;P2;SDS_P1;SDS_P2;PMS_P1;PMS_P2;Temp;Humidity;BMP_temperature;BMP_pressure;BME280_temperature;BME280_humidity;BME280_pressure;Samples;Min_cycle;Max_cycle;Signal;HPM_P1;HPM_P2
2022/02/24 00:00:32;;;;;;;11.93;9.27;;;5.20;99.90;;;;;;5076129;28;20639;-70
2022/02/24 00:02:58;;;;;;;17.20;10.20;;;5.20;99.90;;;;;;5075479;28;20200;-71
2022/02/24 00:05:25;;;;;;;14.55;9.50;;;5.10;99.90;;;;;;5076453;28;20239;-71
2022/02/24 00:07:52;;;;;;;11.57;7.63;;;5.00;99.90;;;;;;5075162;28;20211;-70
2022/02/24 00:10:20;;;;;;;14.55;9.60;;;5.00;99.90;;;;;;5076931;28;20214;-70
2022/02/24 00:12:47;;;;;;;14.35;9.10;;;5.00;99.90;;;;;;5077039;28;20215;-70
2022/02/24 00:15:14;;;;;;;11.57;8.32;;;5.00;99.90;;;;;;5077260;28;20200;-70
2022/02/24 00:17:41;;;;;;;10.55;8.80;;;5.00;99.90;;;;;;5076698;28;20204;-71
2022/02/24 00:20:09;;;;;;;17.75;8.80;;;4.90;99.90;;;;;;5076603;28;20228;-71
2022/02/24 00:22:36;;;;;;;22.02;8.80;;;4.90;99.90;;;;;;5076495;28;20200;-71
2022/02/24 00:25:04;;;;;;;18.67;8.10;;;4.80;99.90;;;;;;5076686;28;20207;-71
2022/02/24 00:27:31;;;;;;;14.48;7.40;;;4.90;99.90;;;;;;5076374;28;20200;-71
2022/02/24 00:29:57;;;;;;;9.20;8.20;;;4.80;99.90;;;;;;5076212;28;20260;-71
2022/02/24 00:32:23;;;;;;;10.00;7.72;;;4.80;99.90;;;;;;5076245;28;20207;-71
2022/02/24 00:34:50;;;;;;;14.10;7.65;;;4.70;99.90;;;;;;5075083;28;20207;-71
2022/02/24 00:37:17;;;;;;;15.35;8.30;;;4.80;99.90;;;;;;5074546;28;20203;-70
2022/02/24 00:39:43;;;;;;;15.30;9.02;;;4.70;99.90;;;;;;5076456;28;20276;-70
2022/02/24 00:42:10;;;;;;;11.77;8.57;;;4.70;99.90;;;;;;5075440;28;20258;-70
2022/02/24 00:44:37;;;;;;;15.65;8.10;;;4.70;99.90;;;;;;5075514;28;20206;-70
2022/02/24 00:47:04;;;;;;;9.65;7.85;;;4.70;99.90;;;;;;5075348;28;20200;-70
2022/02/24 00:49:30;;;;;;;11.73;7.80;;;4.70;99.90;;;;;;5075177;28;20211;-70
2022/02/24 00:51:57;;;;;;;13.35;8.85;;;4.70;99.90;;;;;;5075218;28;20207;-70
2022/02/24 00:54:23;;;;;;;10.75;7.97;;;4.70;99.90;;;;;;5075614;28;20721;-71
2022/02/24 00:56:50;;;;;;;10.38;8.18;;;4.60;99.90;;;;;;5075351;28;20204;-70
2022/02/24 00:59:16;;;;;;;17.23;8.50;;;4.60;99.90;;;;;;5074764;28;20227;-70
2022/02/24 01:01:43;;;;;;;11.85;8.70;;;4.50;99.90;;;;;;5074710;28;20660;-70
2022/02/24 01:04:10;;;;;;;18.92;9.65;;;4.50;99.90;;;;;;5074598;28;20228;-70
2022/02/24 01:06:36;;;;;;;19.85;9.55;;;4.40;99.90;;;;;;5073279;28;20231;-70
2022/02/24 01:09:03;;;;;;;16.27;10.05;;;4.50;99.90;;;;;;5074524;28;20207;-70
2022/02/24 01:11:29;;;;;;;21.38;9.30;;;4.60;99.90;;;;;;5074550;28;20717;-71
2022/02/24 01:13:56;;;;;;;24.02;9.68;;;4.70;99.90;;;;;;5073425;28;20564;-70
2022/02/24 01:16:22;;;;;;;14.00;9.05;;;4.80;99.90;;;;;;5074705;28;20203;-70
2022/02/24 01:18:49;;;;;;;16.25;8.75;;;4.80;99.90;;;;;;5074452;28;20694;-70
2022/02/24 01:21:15;;;;;;;16.23;8.40;;;4.70;99.90;;;;;;5074039;28;20203;-70
2022/02/24 01:23:41;;;;;;;12.80;8.60;;;4.70;99.90;;;;;;5074916;28;20196;-71
2022/02/24 01:26:09;;;;;;;18.15;9.02;;;4.80;99.90;;;;;;5074728;28;20196;-71
2022/02/24 01:28:36;;;;;;;11.75;8.50;;;4.80;99.90;;;;;;5074545;28;20200;-70
2022/02/24 01:31:03;;;;;;;14.65;8.68;;;4.70;99.90;;;;;;5074280;28;20204;-70
2022/02/24 01:33:29;;;;;;;10.48;8.68;;;4.80;99.90;;;;;;5072655;28;20200;-70
2022/02/24 01:35:55;;;;;;;12.55;7.53;;;4.80;99.90;;;;;;5074199;28;20725;-70
2022/02/24 01:38:22;;;;;;;13.75;8.77;;;4.80;99.90;;;;;;5073989;28;20214;-72
2022/02/24 01:40:48;;;;;;;49.58;19.80;;;4.90;99.90;;;;;;5073851;28;20220;-71
2022/02/24 01:43:15;;;;;;;21.25;12.57;;;4.80;99.90;;;;;;5073810;28;20598;-71
2022/02/24 01:45:41;;;;;;;31.08;13.85;;;4.90;99.90;;;;;;5072496;28;20203;-71
2022/02/24 01:48:07;;;;;;;22.60;12.43;;;4.90;99.90;;;;;;5073890;28;20249;-71
2022/02/24 01:50:34;;;;;;;19.05;11.98;;;4.90;99.90;;;;;;5072591;28;20212;-71
2022/02/24 01:53:01;;;;;;;11.60;8.88;;;4.90;99.90;;;;;;5073883;28;20692;-71
2022/02/24 01:55:27;;;;;;;13.68;8.10;;;4.80;99.90;;;;;;5073595;28;20204;-71
2022/02/24 01:57:54;;;;;;;16.80;8.55;;;4.90;99.90;;;;;;5073836;28;20659;-71
2022/02/24 02:00:21;;;;;;;9.35;8.45;;;4.80;99.90;;;;;;5073985;28;20224;-71
2022/02/24 02:02:48;;;;;;;15.15;10.10;;;4.80;99.90;;;;;;5073753;28;20192;-71
2022/02/24 02:05:15;;;;;;;11.80;8.13;;;4.80;99.90;;;;;;5073404;28;20219;-71
2022/02/24 02:07:42;;;;;;;11.82;8.38;;;4.80;99.90;;;;;;5073667;28;20226;-71
2022/02/24 02:10:08;;;;;;;14.95;7.72;;;4.90;99.90;;;;;;5073895;28;20208;-71
2022/02/24 02:12:49;;;;;;;14.10;8.45;;;4.90;99.90;;;;;;5073999;28;20207;-71
2022/02/24 02:15:16;;;;;;;10.13;8.27;;;4.90;99.90;;;;;;5074108;28;20200;-71
2022/02/24 02:17:43;;;;;;;10.70;8.15;;;4.90;99.90;;;;;;5074362;28;20200;-71
2022/02/24 02:20:11;;;;;;;14.23;8.27;;;4.90;99.90;;;;;;5074294;28;20599;-71
2022/02/24 02:22:37;;;;;;;10.85;7.93;;;4.90;99.90;;;;;;5074164;28;20620;-71
2022/02/24 02:25:07;;;;;;;14.65;9.15;;;5.00;99.90;;;;;;5073916;28;20211;-71
2022/02/24 02:27:34;;;;;;;15.68;8.05;;;4.90;99.90;;;;;;5074050;28;20195;-71
2022/02/24 02:30:01;;;;;;;12.38;8.88;;;4.90;99.90;;;;;;5073714;28;20576;-71
2022/02/24 02:32:27;;;;;;;11.95;8.73;;;4.80;99.90;;;;;;5073178;28;20204;-71
2022/02/24 02:34:54;;;;;;;15.15;7.88;;;4.80;99.90;;;;;;5072028;28;20203;-71
2022/02/24 02:37:20;;;;;;;11.45;8.15;;;4.90;99.90;;;;;;5071877;28;20216;-71
2022/02/24 02:39:46;;;;;;;15.48;9.40;;;4.90;99.90;;;;;;5071905;28;20219;-71
2022/02/24 02:42:14;;;;;;;47.50;33.15;;;4.90;99.90;;;;;;5073187;28;20195;-71
2022/02/24 02:44:41;;;;;;;29.00;18.92;;;4.90;99.90;;;;;;5073509;28;20207;-71
2022/02/24 02:47:07;;;;;;;36.45;21.90;;;5.10;99.90;;;;;;5073675;28;20196;-71
2022/02/24 02:49:34;;;;;;;18.00;15.98;;;5.10;99.90;;;;;;5073144;28;20250;-71
2022/02/24 02:52:00;;;;;;;17.02;11.07;;;5.20;99.90;;;;;;5071970;28;20211;-70
2022/02/24 02:54:26;;;;;;;9.27;8.20;;;5.30;99.90;;;;;;5072733;28;20196;-70
2022/02/24 02:56:53;;;;;;;18.05;12.02;;;5.20;99.90;;;;;;5076978;28;20203;-70
2022/02/24 02:59:19;;;;;;;13.30;9.65;;;5.20;99.90;;;;;;5076797;28;20681;-70
2022/02/24 03:01:53;;;;;;;13.45;9.50;;;5.30;99.90;;;;;;5076805;28;20558;-70
2022/02/24 03:04:20;;;;;;;11.43;9.02;;;5.40;99.90;;;;;;5076541;28;20285;-70
2022/02/24 03:06:47;;;;;;;15.98;9.65;;;5.50;99.90;;;;;;5076874;28;20239;-70
2022/02/24 03:09:13;;;;;;;14.32;8.93;;;5.50;99.90;;;;;;5076843;28;20223;-70
2022/02/24 03:11:40;;;;;;;16.40;10.35;;;5.50;99.90;;;;;;5076615;28;20586;-71
2022/02/24 03:14:06;;;;;;;14.52;10.65;;;5.60;99.90;;;;;;5076020;28;20558;-71
2022/02/24 03:16:33;;;;;;;13.40;10.05;;;5.60;99.90;;;;;;5076285;28;20253;-71
2022/02/24 03:18:59;;;;;;;10.43;9.38;;;5.60;99.90;;;;;;5075111;28;20210;-71
2022/02/24 03:21:26;;;;;;;18.10;10.27;;;5.60;99.90;;;;;;5076435;28;20227;-71
2022/02/24 03:23:52;;;;;;;12.30;10.15;;;5.70;99.90;;;;;;5076657;28;20195;-71
2022/02/24 03:26:19;;;;;;;13.93;9.90;;;5.70;99.90;;;;;;5076608;28;20211;-71
2022/02/24 03:28:45;;;;;;;12.32;10.27;;;5.80;99.90;;;;;;5076376;28;20265;-71
2022/02/24 03:31:11;;;;;;;13.02;11.07;;;5.80;99.90;;;;;;5075290;28;20208;-70
2022/02/24 03:33:38;;;;;;;12.77;9.82;;;5.80;99.90;;;;;;5076129;28;20212;-71
2022/02/24 03:36:06;;;;;;;10.63;9.52;;;5.80;99.90;;;;;;5075136;28;20268;-71
2022/02/24 03:38:32;;;;;;;18.23;10.30;;;5.80;99.90;;;;;;5075154;28;20208;-71
2022/02/24 03:40:59;;;;;;;13.98;10.60;;;5.80;99.90;;;;;;5075677;28;20219;-71
2022/02/24 03:43:25;;;;;;;15.23;11.50;;;5.90;99.90;;;;;;5075669;28;20713;-71
2022/02/24 03:45:51;;;;;;;16.48;11.13;;;5.90;99.90;;;;;;5075696;28;20656;-71
2022/02/24 03:48:18;;;;;;;18.65;11.95;;;6.00;99.90;;;;;;5076188;28;20207;-71
2022/02/24 03:50:44;;;;;;;13.02;11.13;;;6.00;99.90;;;;;;5076011;28;20564;-71
2022/02/24 03:53:11;;;;;;;17.50;10.82;;;6.00;99.90;;;;;;5074145;28;20211;-71
2022/02/24 03:55:37;;;;;;;12.95;10.80;;;6.00;99.90;;;;;;5075705;28;20256;-71
2022/02/24 03:58:03;;;;;;;14.27;10.85;;;6.00;99.90;;;;;;5075937;28;20199;-71
2022/02/24 04:00:30;;;;;;;16.52;11.20;;;6.10;99.90;;;;;;5074670;28;20230;-71
2022/02/24 04:02:56;;;;;;;16.88;11.25;;;6.10;99.90;;;;;;5075323;28;20199;-71
2022/02/24 04:05:23;;;;;;;13.20;10.77;;;6.00;99.90;;;;;;5074967;28;20246;-71
2022/02/24 04:07:49;;;;;;;13.45;10.75;;;6.10;99.90;;;;;;5075426;28;20205;-71
2022/02/24 04:10:16;;;;;;;17.20;11.35;;;6.10;99.90;;;;;;5075549;28;20207;-71
2022/02/24 04:12:42;;;;;;;16.33;10.70;;;6.10;99.90;;;;;;5075752;28;20200;-71
2022/02/24 04:15:09;;;;;;;17.60;11.02;;;6.10;99.90;;;;;;5075584;28;20225;-71
2022/02/24 04:17:35;;;;;;;15.27;11.38;;;6.20;99.90;;;;;;5075264;28;20269;-71
2022/02/24 04:20:02;;;;;;;20.77;10.88;;;6.20;99.90;;;;;;5075298;28;20243;-72
2022/02/24 04:22:28;;;;;;;15.70;11.02;;;6.20;99.90;;;;;;5075441;28;20234;-71
2022/02/24 04:24:57;;;;;;;14.40;10.82;;;6.20;99.90;;;;;;5073784;28;20200;-71
2022/02/24 04:27:23;;;;;;;16.30;11.55;;;6.20;99.90;;;;;;5073524;28;20196;-71
2022/02/24 04:29:50;;;;;;;16.80;10.75;;;6.30;99.90;;;;;;5075096;28;20707;-72
2022/02/24 04:32:16;;;;;;;15.45;11.32;;;6.30;99.90;;;;;;5073544;28;20203;-72
2022/02/24 04:34:42;;;;;;;13.20;11.07;;;6.30;99.90;;;;;;5074912;28;20196;-72
2022/02/24 04:37:09;;;;;;;12.25;10.63;;;6.30;99.90;;;;;;5074741;28;20256;-72
2022/02/24 04:39:36;;;;;;;13.85;11.73;;;6.30;99.90;;;;;;5074853;28;20207;-72
2022/02/24 04:42:02;;;;;;;13.82;11.07;;;6.30;99.90;;;;;;5073587;28;20612;-70
2022/02/24 04:44:29;;;;;;;19.90;11.27;;;6.20;99.90;;;;;;5075111;28;20208;-71
2022/02/24 04:46:55;;;;;;;16.08;11.20;;;6.20;99.90;;;;;;5074746;28;20203;-71
2022/02/24 04:49:22;;;;;;;17.92;11.25;;;6.20;99.90;;;;;;5073584;28;20637;-70
2022/02/24 04:51:48;;;;;;;15.13;11.98;;;6.20;99.90;;;;;;5073190;28;20200;-70
2022/02/24 04:54:15;;;;;;;13.18;11.65;;;6.20;99.90;;;;;;5073114;28;20200;-70
2022/02/24 04:56:41;;;;;;;18.92;10.68;;;6.20;99.90;;;;;;5074340;28;20613;-71
2022/02/24 04:59:07;;;;;;;13.98;11.15;;;6.20;99.90;;;;;;5073079;28;20196;-70
2022/02/24 05:01:34;;;;;;;14.38;11.50;;;6.20;99.90;;;;;;5074017;28;20220;-70
2022/02/24 05:04:01;;;;;;;18.58;11.95;;;6.20;99.90;;;;;;5055996;28;20237;-71
2022/02/24 05:06:27;;;;;;;12.27;11.05;;;6.10;99.90;;;;;;5074481;28;20216;-71
2022/02/24 05:08:53;;;;;;;18.00;11.55;;;6.20;99.90;;;;;;5073979;28;20542;-71
2022/02/24 05:11:20;;;;;;;11.45;10.15;;;6.20;99.90;;;;;;5074240;28;20207;-71
2022/02/24 05:13:47;;;;;;;11.93;10.57;;;6.20;99.90;;;;;;5074102;28;20731;-71
2022/02/24 05:16:14;;;;;;;12.23;10.65;;;6.20;99.90;;;;;;5074172;28;20204;-71
2022/02/24 05:18:40;;;;;;;16.98;10.63;;;6.20;99.90;;;;;;5073113;28;20208;-71
2022/02/24 05:21:06;;;;;;;12.90;10.70;;;6.20;99.90;;;;;;5073811;28;20212;-71
2022/02/24 05:23:33;;;;;;;12.10;10.43;;;6.20;99.90;;;;;;5073698;28;20663;-72
2022/02/24 05:25:59;;;;;;;16.42;11.50;;;6.20;99.90;;;;;;5072383;28;20204;-72
2022/02/24 05:28:26;;;;;;;17.27;11.82;;;6.20;99.90;;;;;;5073662;28;20207;-72
2022/02/24 05:30:58;;;;;;;12.25;10.60;;;6.20;99.90;;;;;;5073654;28;20212;-73
2022/02/24 05:33:26;;;;;;;12.60;11.20;;;6.30;99.90;;;;;;5074239;28;20207;-72
2022/02/24 05:35:52;;;;;;;12.88;10.75;;;6.30;99.90;;;;;;5074114;28;20192;-72
2022/02/24 05:38:19;;;;;;;15.88;11.40;;;6.30;99.90;;;;;;5073957;28;20195;-72
2022/02/24 05:40:46;;;;;;;13.02;11.30;;;6.20;99.90;;;;;;5073902;28;20224;-72
2022/02/24 05:43:12;;;;;;;15.73;10.18;;;6.20;99.90;;;;;;5074235;28;20196;-72
2022/02/24 05:45:39;;;;;;;14.55;10.60;;;6.20;99.90;;;;;;5074312;28;20203;-72
2022/02/24 05:48:05;;;;;;;17.02;11.30;;;6.10;99.90;;;;;;5074558;28;20195;-72
2022/02/24 05:50:32;;;;;;;14.55;11.32;;;6.10;99.90;;;;;;5073716;28;20215;-72
2022/02/24 05:53:02;;;;;;;16.35;11.57;;;6.00;99.90;;;;;;5073999;28;20226;-72
2022/02/24 05:55:30;;;;;;;13.55;11.45;;;6.00;99.90;;;;;;5074366;28;20204;-72
2022/02/24 05:57:56;;;;;;;16.83;11.05;;;6.00;99.90;;;;;;5074271;28;20309;-72
2022/02/24 06:00:23;;;;;;;13.80;10.98;;;6.00;99.90;;;;;;5073532;28;20698;-72
2022/02/24 06:02:50;;;;;;;13.95;11.57;;;6.00;99.90;;;;;;5074037;28;20203;-71
2022/02/24 06:05:16;;;;;;;14.88;10.93;;;6.00;99.90;;;;;;5072614;28;20243;-72
2022/02/24 06:07:44;;;;;;;12.30;10.85;;;6.00;99.90;;;;;;5073525;28;20212;-71
2022/02/24 06:10:14;;;;;;;17.10;10.93;;;5.90;99.90;;;;;;5073735;28;20739;-72
2022/02/24 06:12:40;;;;;;;15.05;10.80;;;5.90;99.90;;;;;;5074116;28;20180;-72
2022/02/24 06:15:09;;;;;;;17.65;11.25;;;5.90;99.90;;;;;;5074035;28;20199;-72
2022/02/24 06:17:36;;;;;;;16.60;10.82;;;5.90;99.90;;;;;;5073440;28;20206;-71
2022/02/24 06:20:06;;;;;;;19.48;12.10;;;5.90;99.90;;;;;;5073306;28;20208;-71
2022/02/24 06:22:32;;;;;;;17.48;12.38;;;5.80;99.90;;;;;;5071897;28;20203;-71
2022/02/24 06:24:59;;;;;;;25.98;13.43;;;5.90;99.90;;;;;;5073681;28;20200;-71
2022/02/24 06:27:25;;;;;;;20.13;12.60;;;5.90;99.90;;;;;;5074057;28;20207;-71
2022/02/24 06:29:52;;;;;;;14.13;11.23;;;5.80;99.90;;;;;;5075865;28;20200;-71
2022/02/24 06:32:18;;;;;;;16.45;11.73;;;5.80;99.90;;;;;;5078059;28;20199;-71
2022/02/24 06:34:45;;;;;;;15.23;12.25;;;5.80;99.90;;;;;;5077777;28;20575;-71
2022/02/24 06:37:11;;;;;;;17.77;11.95;;;5.80;99.90;;;;;;5078106;28;20604;-71
2022/02/24 06:39:38;;;;;;;17.60;11.50;;;5.80;99.90;;;;;;5078180;28;20207;-71
2022/02/24 06:42:04;;;;;;;24.60;15.30;;;5.80;99.90;;;;;;5077445;28;20705;-71
2022/02/24 06:44:31;;;;;;;24.15;12.48;;;5.80;99.90;;;;;;5077811;28;20199;-72
2022/02/24 06:46:57;;;;;;;16.42;12.02;;;5.70;99.90;;;;;;5076200;28;20207;-72
2022/02/24 06:49:24;;;;;;;19.73;12.00;;;5.80;99.90;;;;;;5077948;28;20200;-73
2022/02/24 06:51:52;;;;;;;20.73;13.00;;;5.80;99.90;;;;;;5076109;28;20212;-72
2022/02/24 06:54:18;;;;;;;16.70;11.23;;;5.80;99.90;;;;;;5076951;28;20204;-73
2022/02/24 06:56:44;;;;;;;21.13;10.63;;;5.80;99.90;;;;;;5076386;28;20206;-72
2022/02/24 06:59:11;;;;;;;15.02;10.65;;;5.80;99.90;;;;;;5075581;28;20211;-72
2022/02/24 07:01:37;;;;;;;13.43;9.95;;;5.70;99.90;;;;;;5077138;28;20212;-72
2022/02/24 07:04:04;;;;;;;15.20;10.18;;;5.80;99.90;;;;;;5077036;28;20604;-72
2022/02/24 07:06:30;;;;;;;10.60;9.50;;;5.80;99.90;;;;;;5076131;28;20243;-72
2022/02/24 07:08:58;;;;;;;11.57;9.43;;;5.70;99.90;;;;;;5076989;28;20204;-73
2022/02/24 07:11:24;;;;;;;11.23;9.18;;;5.80;99.90;;;;;;5075859;28;20212;-73
2022/02/24 07:13:51;;;;;;;11.32;9.02;;;5.80;99.90;;;;;;5076765;28;20207;-72
2022/02/24 07:16:19;;;;;;;11.23;9.00;;;5.80;99.90;;;;;;5076777;28;20682;-73
2022/02/24 07:18:46;;;;;;;13.48;9.30;;;5.90;99.90;;;;;;5076705;28;20682;-73
2022/02/24 07:21:12;;;;;;;10.63;7.82;;;5.90;99.90;;;;;;5075047;28;20220;-72
2022/02/24 07:23:39;;;;;;;15.25;9.13;;;5.90;99.90;;;;;;5076265;28;20199;-72
2022/02/24 07:26:07;;;;;;;12.60;8.52;;;6.00;99.90;;;;;;5075933;28;20215;-73
2022/02/24 07:28:34;;;;;;;10.35;8.93;;;6.00;99.90;;;;;;5076179;28;20196;-72
2022/02/24 07:31:00;;;;;;;12.20;8.95;;;6.10;99.90;;;;;;5076027;28;20215;-73
2022/02/24 07:33:26;;;;;;;10.35;8.88;;;6.10;99.90;;;;;;5076264;28;20196;-72
2022/02/24 07:35:53;;;;;;;14.38;9.20;;;6.10;99.90;;;;;;5076404;28;20204;-72
2022/02/24 07:38:19;;;;;;;12.88;8.82;;;6.20;99.90;;;;;;5075833;28;20204;-72
2022/02/24 07:40:46;;;;;;;9.85;8.50;;;6.20;99.90;;;;;;5073968;28;20215;-72
2022/02/24 07:43:12;;;;;;;13.27;8.38;;;6.30;99.90;;;;;;5076314;28;20589;-72
2022/02/24 07:45:39;;;;;;;8.93;8.13;;;6.30;99.90;;;;;;5076219;28;20596;-72
2022/02/24 07:48:05;;;;;;;9.00;8.10;;;6.40;99.90;;;;;;5076298;28;20192;-72
2022/02/24 07:50:31;;;;;;;10.90;8.10;;;6.50;99.90;;;;;;5075026;28;20215;-73
2022/02/24 07:52:58;;;;;;;10.00;8.50;;;6.60;99.90;;;;;;5076141;28;20613;-74
2022/02/24 07:55:24;;;;;;;13.18;8.13;;;6.80;99.90;;;;;;5076552;28;20195;-73
2022/02/24 07:57:51;;;;;;;9.10;7.55;;;6.90;99.90;;;;;;5075972;28;20211;-73
2022/02/24 08:00:18;;;;;;;11.35;7.70;;;7.00;99.90;;;;;;5075424;28;20196;-73
2022/02/24 08:02:45;;;;;;;11.93;7.05;;;7.00;99.90;;;;;;5075933;28;20566;-73
2022/02/24 08:05:12;;;;;;;14.73;7.63;;;7.10;99.90;;;;;;5075488;28;20235;-73
2022/02/24 08:07:39;;;;;;;13.05;7.43;;;7.10;99.90;;;;;;5075677;28;20239;-73
2022/02/24 08:10:06;;;;;;;7.97;7.18;;;7.20;99.90;;;;;;5076004;28;20607;-73
2022/02/24 08:12:39;;;;;;;12.10;7.57;;;7.30;99.90;;;;;;5075508;28;20656;-73
2022/02/24 08:15:14;;;;;;;8.50;7.38;;;7.40;99.90;;;;;;5075665;28;20188;-73
2022/02/24 08:17:42;;;;;;;8.30;7.40;;;7.50;99.90;;;;;;5075777;28;20195;-73
2022/02/24 08:20:09;;;;;;;7.57;6.80;;;7.50;99.90;;;;;;5076236;28;20215;-73
2022/02/24 08:22:38;;;;;;;13.95;7.90;;;7.40;99.90;;;;;;5075494;28;20224;-73
2022/02/24 08:25:06;;;;;;;8.05;7.25;;;7.60;99.90;;;;;;5075186;28;20204;-73
2022/02/24 08:27:36;;;;;;;7.97;6.82;;;7.50;99.90;;;;;;5074847;28;20215;-73
2022/02/24 08:30:05;;;;;;;7.45;6.50;;;7.60;99.90;;;;;;5075409;28;20599;-73
2022/02/24 08:32:32;;;;;;;15.02;8.15;;;7.70;99.90;;;;;;5074801;28;20196;-73
2022/02/24 08:34:58;;;;;;;7.57;6.95;;;7.80;99.90;;;;;;5075120;28;20270;-73
2022/02/24 08:37:26;;;;;;;8.93;6.65;;;7.80;99.90;;;;;;5073492;28;20223;-73
2022/02/24 08:39:52;;;;;;;10.68;7.18;;;7.90;99.90;;;;;;5074488;28;20207;-72
2022/02/24 08:42:22;;;;;;;7.50;6.80;;;7.90;99.90;;;;;;5074790;28;20277;-73
2022/02/24 08:44:49;;;;;;;7.10;6.40;;;8.00;99.90;;;;;;5074660;28;20188;-72
2022/02/24 08:47:17;;;;;;;8.82;6.97;;;8.20;99.90;;;;;;5074700;28;20224;-73
2022/02/24 08:49:45;;;;;;;12.30;6.75;;;8.40;99.90;;;;;;5074783;28;20640;-72
2022/02/24 08:52:12;;;;;;;8.77;7.88;;;8.40;99.90;;;;;;5074257;28;20203;-72
2022/02/24 08:54:39;;;;;;;6.78;6.10;;;8.40;99.90;;;;;;5075187;28;20200;-72
2022/02/24 08:57:06;;;;;;;9.15;5.55;;;8.70;99.90;;;;;;5074371;28;20659;-72
2022/02/24 08:59:32;;;;;;;11.27;6.30;;;8.70;99.90;;;;;;5074713;28;20566;-73
2022/02/24 09:01:59;;;;;;;8.07;6.18;;;8.70;99.90;;;;;;5074524;28;20593;-72
2022/02/24 09:04:25;;;;;;;12.38;6.20;;;8.60;99.90;;;;;;5074295;28;20288;-72
2022/02/24 09:06:52;;;;;;;9.10;6.03;;;8.80;99.90;;;;;;5074011;28;20223;-73
2022/02/24 09:09:18;;;;;;;10.85;6.28;;;8.90;99.90;;;;;;5074278;28;20215;-72
2022/02/24 09:11:45;;;;;;;7.85;6.00;;;9.00;99.90;;;;;;5074050;28;20726;-73
2022/02/24 09:14:11;;;;;;;6.32;5.68;;;9.20;99.90;;;;;;5073553;28;20208;-72
2022/02/24 09:16:39;;;;;;;6.70;5.50;;;9.20;99.90;;;;;;5074003;28;20574;-73
2022/02/24 09:19:05;;;;;;;10.38;5.28;;;9.00;99.90;;;;;;5074017;28;20199;-73
2022/02/24 09:21:33;;;;;;;5.55;4.97;;;9.20;99.90;;;;;;5074144;28;20216;-73
2022/02/24 09:23:59;;;;;;;6.15;5.53;;;9.20;99.90;;;;;;5073826;28;20214;-73
2022/02/24 09:26:26;;;;;;;7.90;5.45;;;9.30;99.90;;;;;;5074085;28;20204;-73
2022/02/24 09:28:52;;;;;;;4.88;4.40;;;9.50;99.90;;;;;;5072599;28;20547;-73
2022/02/24 09:31:20;;;;;;;4.63;4.10;;;9.60;99.90;;;;;;5072489;28;20200;-73
2022/02/24 09:33:48;;;;;;;7.60;5.00;;;9.70;99.90;;;;;;5074028;28;20577;-73
2022/02/24 09:36:14;;;;;;;6.75;4.57;;;9.70;99.90;;;;;;5074086;28;20540;-71
2022/02/24 09:38:41;;;;;;;7.40;5.47;;;9.80;99.90;;;;;;5074021;28;20243;-73
2022/02/24 09:41:10;;;;;;;6.00;4.22;;;9.80;99.90;;;;;;5074077;28;20226;-71
2022/02/24 09:43:37;;;;;;;4.07;3.78;;;9.90;99.90;;;;;;5073570;28;20196;-73
2022/02/24 09:46:06;;;;;;;5.15;4.10;;;9.80;99.90;;;;;;5073952;28;20206;-73
2022/02/24 09:48:36;;;;;;;4.75;4.35;;;9.90;99.90;;;;;;5073384;28;20195;-74
2022/02/24 09:51:05;;;;;;;4.05;3.75;;;10.00;99.90;;;;;;5074178;28;20575;-73
2022/02/24 09:53:34;;;;;;;4.05;3.33;;;10.00;99.90;;;;;;5073662;28;20208;-73
2022/02/24 09:56:05;;;;;;;5.03;3.80;;;10.40;99.90;;;;;;5073412;28;20196;-73
2022/02/24 09:58:32;;;;;;;4.43;4.13;;;10.40;99.90;;;;;;5073495;28;20199;-72
2022/02/24 10:01:01;;;;;;;4.82;3.88;;;10.50;99.90;;;;;;5073615;28;20219;-72
2022/02/24 10:03:32;;;;;;;4.30;3.90;;;10.50;99.90;;;;;;5072670;28;20200;-72
2022/02/24 10:06:00;;;;;;;5.25;4.05;;;10.50;99.90;;;;;;5073065;28;20227;-71
2022/02/24 10:08:27;;;;;;;4.07;3.72;;;10.70;99.90;;;;;;5073472;28;20206;-72
2022/02/24 10:10:54;;;;;;;5.07;4.57;;;10.90;99.90;;;;;;5073351;28;20206;-72
2022/02/24 10:13:21;;;;;;;4.97;4.43;;;10.90;99.90;;;;;;5073131;28;20200;-72
2022/02/24 10:16:01;;;;;;;12.52;4.45;;;10.70;99.90;;;;;;5073141;28;20204;-72
2022/02/24 10:18:33;;;;;;;4.82;3.78;;;10.80;99.90;;;;;;5073495;28;20534;-72
2022/02/24 10:21:03;;;;;;;3.58;3.28;;;10.80;99.90;;;;;;5073236;28;20191;-72
2022/02/24 10:23:35;;;;;;;3.15;2.90;;;11.00;99.90;;;;;;5071803;28;20196;-72
2022/02/24 10:26:05;;;;;;;3.03;2.80;;;11.00;99.90;;;;;;5073385;28;20180;-73
2022/02/24 10:28:33;;;;;;;6.93;3.03;;;11.00;99.90;;;;;;5073353;28;20567;-72
2022/02/24 10:31:23;;;;;;;9.48;3.17;;;11.00;99.90;;;;;;5073388;28;20208;-72
2022/02/24 10:33:52;;;;;;;3.88;2.75;;;11.10;99.90;;;;;;5073521;28;20203;-72
2022/02/24 10:36:20;;;;;;;2.70;2.50;;;11.20;99.90;;;;;;5073508;28;20200;-72
2022/02/24 10:39:03;;;;;;;5.57;3.33;;;11.30;99.90;;;;;;5073401;28;20222;-72
2022/02/24 10:41:35;;;;;;;5.13;2.80;;;11.30;99.90;;;;;;5071687;28;20227;-72
2022/02/24 10:44:12;;;;;;;2.80;2.60;;;11.50;99.90;;;;;;5073096;28;20184;-72
2022/02/24 10:46:39;;;;;;;4.80;2.87;;;11.60;99.90;;;;;;5073544;28;20196;-72
2022/02/24 10:49:05;;;;;;;3.67;3.05;;;11.60;99.90;;;;;;5073461;28;20611;-72
2022/02/24 10:51:33;;;;;;;13.18;3.70;;;11.80;99.90;;;;;;5071790;28;20203;-72
2022/02/24 10:54:07;;;;;;;3.35;2.40;;;11.70;99.90;;;;;;5073250;28;20208;-71
2022/02/24 10:56:39;;;;;;;3.42;2.63;;;11.50;99.90;;;;;;5072731;28;20203;-71
2022/02/24 10:59:05;;;;;;;2.97;2.33;;;11.80;99.90;;;;;;5072705;28;20724;-72
2022/02/24 11:01:32;;;;;;;2.90;2.10;;;12.00;99.90;;;;;;5071633;28;20219;-72
2022/02/24 11:04:03;;;;;;;3.97;2.67;;;12.00;99.90;;;;;;5072502;28;20605;-72
2022/02/24 11:06:33;;;;;;;5.57;2.60;;;12.00;99.90;;;;;;5073118;28;20626;-72
2022/02/24 11:09:01;;;;;;;3.30;2.30;;;12.00;99.90;;;;;;5072762;28;20253;-72
2022/02/24 11:11:30;;;;;;;2.00;1.90;;;11.90;99.90;;;;;;5072816;28;20618;-73
2022/02/24 11:13:58;;;;;;;2.80;2.60;;;12.00;99.90;;;;;;5072817;28;20604;-72
2022/02/24 11:16:25;;;;;;;4.20;2.88;;;12.20;99.90;;;;;;5074148;28;20211;-72
2022/02/24 11:18:52;;;;;;;2.43;2.33;;;12.20;99.90;;;;;;5076184;28;20207;-73
2022/02/24 11:21:21;;;;;;;3.30;2.00;;;12.00;99.90;;;;;;5076375;28;20670;-72
2022/02/24 11:23:49;;;;;;;5.30;2.63;;;12.10;99.90;;;;;;5076133;28;20618;-72
2022/02/24 11:26:31;;;;;;;5.95;2.50;;;12.10;99.90;;;;;;5075930;28;20624;-72
2022/02/24 11:29:14;;;;;;;4.63;3.00;;;12.20;99.90;;;;;;5076157;28;20203;-72
2022/02/24 11:31:47;;;;;;;2.70;2.37;;;12.40;99.90;;;;;;5076179;28;20699;-72
2022/02/24 11:34:13;;;;;;;2.83;2.50;;;12.10;99.90;;;;;;5076156;28;20545;-72
2022/02/24 11:36:46;;;;;;;3.20;2.70;;;12.20;99.90;;;;;;5075964;28;20625;-72
2022/02/24 11:39:15;;;;;;;3.00;2.77;;;12.50;99.90;;;;;;5076009;28;20569;-73
2022/02/24 11:41:54;;;;;;;2.83;2.57;;;12.60;99.90;;;;;;5076096;28;20720;-72
2022/02/24 11:44:38;;;;;;;3.63;2.67;;;12.60;99.90;;;;;;5075446;28;20610;-72
2022/02/24 11:47:08;;;;;;;2.43;2.23;;;12.50;99.90;;;;;;5075690;28;20582;-72
2022/02/24 11:49:53;;;;;;;4.40;3.33;;;12.40;99.90;;;;;;5076027;28;20610;-72
2022/02/24 11:52:20;;;;;;;6.43;3.23;;;12.40;99.90;;;;;;5074674;28;20589;-72
2022/02/24 11:54:47;;;;;;;3.13;2.70;;;12.40;99.90;;;;;;5075763;28;20670;-72
2022/02/24 11:57:31;;;;;;;2.80;2.60;;;12.30;99.90;;;;;;5074398;28;20606;-75
2022/02/24 12:00:00;;;;;;;6.20;3.40;;;12.40;99.90;;;;;;5075222;28;20580;-72
2022/02/24 12:02:43;;;;;;;4.63;2.67;;;12.60;99.90;;;;;;5075615;28;20653;-73
2022/02/24 12:05:26;;;;;;;4.30;2.70;;;12.40;99.90;;;;;;5075341;28;20657;-72
2022/02/24 12:08:09;;;;;;;3.20;2.90;;;12.40;99.90;;;;;;5075409;28;20582;-73
2022/02/24 12:10:47;;;;;;;2.50;2.30;;;12.30;99.90;;;;;;5076571;28;20925;-72
2022/02/24 12:13:25;;;;;;;3.20;2.97;;;12.20;99.90;;;;;;5075563;28;20651;-72
2022/02/24 12:16:12;;;;;;;3.47;2.53;;;12.20;99.90;;;;;;5075420;28;20600;-72
2022/02/24 12:18:40;;;;;;;3.20;2.57;;;12.10;99.90;;;;;;5075119;28;21164;-72
2022/02/24 12:21:34;;;;;;;4.50;2.43;;;11.90;99.90;;;;;;5075311;28;20606;-72
2022/02/24 12:24:12;;;;;;;5.53;3.60;;;11.90;99.90;;;;;;5075160;28;20613;-72
2022/02/24 12:26:46;;;;;;;3.33;2.30;;;11.90;99.90;;;;;;5074827;28;20575;-72
2022/02/24 12:29:37;;;;;;;4.70;2.77;;;12.10;99.90;;;;;;5075247;28;20570;-72
2022/02/24 12:32:06;;;;;;;3.33;2.53;;;12.30;99.90;;;;;;5075253;28;20615;-72
2022/02/24 12:34:34;;;;;;;3.30;2.80;;;12.40;99.90;;;;;;5074569;28;20606;-72
2022/02/24 12:37:13;;;;;;;3.33;2.60;;;12.30;99.90;;;;;;5074875;28;20606;-72
2022/02/24 12:39:41;;;;;;;2.80;2.60;;;12.20;99.90;;;;;;5074809;28;21157;-72
2022/02/24 12:42:10;;;;;;;3.87;3.00;;;12.10;99.90;;;;;;5075076;28;21016;-72
2022/02/24 12:44:38;;;;;;;3.57;3.10;;;12.00;99.90;;;;;;5073399;28;20610;-72
2022/02/24 12:47:05;;;;;;;4.63;2.50;;;12.10;99.90;;;;;;5074594;28;21166;-73
2022/02/24 12:49:42;;;;;;;3.20;2.50;;;12.20;99.90;;;;;;5074665;28;20617;-72